sensor_id;sensor_type;location;lat;lon;timestamp;pressure;altitude;pressure_sealevel;temperature;humidity
49515;BME280;35415;47.870;16.058;2022-08-11T00:00:32;97992.75;;;15.93;61.08
49515;BME280;35415;47.870;16.058;2022-08-11T00:03:05;97993.06;;;15.87;61.76
49515;BME280;35415;47.870;16.058;2022-08-11T00:05:41;97980.94;;;15.79;62.26
49515;BME280;35415;47.870;16.058;2022-08-11T00:08:11;97980.97;;;15.74;62.59
49515;BME280;35415;47.870;16.058;2022-08-11T00:10:51;97991.28;;;15.72;62.26
49515;BME280;35415;47.870;16.058;2022-08-11T00:13:20;97982.09;;;15.68;63.41
49515;BME280;35415;47.870;16.058;2022-08-11T00:15:48;97976.16;;;15.61;63.55
49515;BME280;35415;47.870;16.058;2022-08-11T00:18:17;97979.97;;;15.60;63.80
49515;BME280;35415;47.870;16.058;2022-08-11T00:20:44;97979.47;;;15.53;63.75
49515;BME280;35415;47.870;16.058;2022-08-11T00:23:16;97971.09;;;15.44;63.88
49515;BME280;35415;47.870;16.058;2022-08-11T00:25:46;97984.41;;;15.46;63.99
49515;BME280;35415;47.870;16.058;2022-08-11T00:28:23;97970.06;;;15.40;63.45
49515;BME280;35415;47.870;16.058;2022-08-11T00:30:51;97982.81;;;15.40;64.02
49515;BME280;35415;47.870;16.058;2022-08-11T00:33:21;97968.78;;;15.27;64.25
49515;BME280;35415;47.870;16.058;2022-08-11T00:35:49;97985.84;;;15.33;64.39
49515;BME280;35415;47.870;16.058;2022-08-11T00:38:23;97978.00;;;15.31;64.18
49515;BME280;35415;47.870;16.058;2022-08-11T00:40:52;97978.47;;;15.39;61.87
49515;BME280;35415;47.870;16.058;2022-08-11T00:43:26;97975.03;;;15.23;63.89
49515;BME280;35415;47.870;16.058;2022-08-11T00:46:10;97975.59;;;15.20;63.72
49515;BME280;35415;47.870;16.058;2022-08-11T00:48:48;97977.53;;;15.14;63.93
49515;BME280;35415;47.870;16.058;2022-08-11T00:51:40;97967.53;;;15.10;63.71
49515;BME280;35415;47.870;16.058;2022-08-11T00:54:25;97968.13;;;15.01;64.58
49515;BME280;35415;47.870;16.058;2022-08-11T01:00:11;97964.59;;;15.01;64.61
49515;BME280;35415;47.870;16.058;2022-08-11T01:03:13;97964.88;;;14.99;64.26
49515;BME280;35415;47.870;16.058;2022-08-11T01:06:16;97955.75;;;14.85;64.45
49515;BME280;35415;47.870;16.058;2022-08-11T01:09:11;97962.22;;;14.89;64.74
49515;BME280;35415;47.870;16.058;2022-08-11T01:11:45;97965.16;;;14.93;63.42
49515;BME280;35415;47.870;16.058;2022-08-11T01:14:49;97950.88;;;14.77;64.92
49515;BME280;35415;47.870;16.058;2022-08-11T01:21:13;97946.09;;;14.64;65.15
49515;BME280;35415;47.870;16.058;2022-08-11T01:27:19;97960.44;;;14.59;65.49
49515;BME280;35415;47.870;16.058;2022-08-11T01:30:09;97959.91;;;14.62;64.43
49515;BME280;35415;47.870;16.058;2022-08-11T01:33:07;97959.41;;;14.50;65.85
49515;BME280;35415;47.870;16.058;2022-08-11T01:45:34;97968.88;;;14.27;68.06
49515;BME280;35415;47.870;16.058;2022-08-11T01:48:09;97938.63;;;14.10;68.08
49515;BME280;35415;47.870;16.058;2022-08-11T01:50:56;97950.25;;;14.21;67.52
49515;BME280;35415;47.870;16.058;2022-08-11T01:53:36;97945.09;;;14.19;68.05
49515;BME280;35415;47.870;16.058;2022-08-11T01:56:15;97945.13;;;14.14;67.81
49515;BME280;35415;47.870;16.058;2022-08-11T01:58:53;97939.97;;;14.07;68.15
49515;BME280;35415;47.870;16.058;2022-08-11T02:01:35;97941.59;;;14.08;68.28
49515;BME280;35415;47.870;16.058;2022-08-11T02:04:14;97948.38;;;14.06;68.46
49515;BME280;35415;47.870;16.058;2022-08-11T02:06:54;97944.59;;;14.02;68.10
49515;BME280;35415;47.870;16.058;2022-08-11T02:09:44;97937.56;;;14.01;67.83
49515;BME280;35415;47.870;16.058;2022-08-11T02:12:33;97944.34;;;13.98;68.72
49515;BME280;35415;47.870;16.058;2022-08-11T02:15:10;97947.84;;;13.94;68.72
49515;BME280;35415;47.870;16.058;2022-08-11T02:17:56;97942.69;;;13.92;68.53
49515;BME280;35415;47.870;16.058;2022-08-11T02:20:26;97945.41;;;13.87;69.23
49515;BME280;35415;47.870;16.058;2022-08-11T02:23:26;97936.78;;;13.85;68.85
49515;BME280;35415;47.870;16.058;2022-08-11T02:26:09;97932.19;;;13.80;69.55
49515;BME280;35415;47.870;16.058;2022-08-11T02:28:50;97933.78;;;13.76;69.33
49515;BME280;35415;47.870;16.058;2022-08-11T02:31:26;97918.94;;;13.69;69.58
49515;BME280;35415;47.870;16.058;2022-08-11T02:34:20;97930.28;;;13.66;69.80
49515;BME280;35415;47.870;16.058;2022-08-11T02:36:55;97918.13;;;13.53;69.87
49515;BME280;35415;47.870;16.058;2022-08-11T02:39:37;97923.81;;;13.51;69.47
49515;BME280;35415;47.870;16.058;2022-08-11T02:42:15;97939.19;;;13.56;70.09
49515;BME280;35415;47.870;16.058;2022-08-11T02:45:11;97921.09;;;13.41;70.38
49515;BME280;35415;47.870;16.058;2022-08-11T02:47:50;97923.25;;;13.39;70.42
49515;BME280;35415;47.870;16.058;2022-08-11T02:50:38;97931.38;;;13.44;70.51
49515;BME280;35415;47.870;16.058;2022-08-11T02:53:12;97930.28;;;13.40;71.01
49515;BME280;35415;47.870;16.058;2022-08-11T02:55:52;97924.63;;;13.32;70.27
49515;BME280;35415;47.870;16.058;2022-08-11T02:58:31;97910.81;;;13.23;70.89
49515;BME280;35415;47.870;16.058;2022-08-11T03:01:11;97937.03;;;13.33;70.99
49515;BME280;35415;47.870;16.058;2022-08-11T03:03:48;97932.97;;;13.25;70.62
49515;BME280;35415;47.870;16.058;2022-08-11T03:06:28;97941.91;;;13.31;70.90
49515;BME280;35415;47.870;16.058;2022-08-11T03:09:03;97930.53;;;13.23;70.88
49515;BME280;35415;47.870;16.058;2022-08-11T03:11:51;97940.78;;;13.27;70.99
49515;BME280;35415;47.870;16.058;2022-08-11T03:14:47;97943.22;;;13.23;71.19
49515;BME280;35415;47.870;16.058;2022-08-11T03:17:36;97936.47;;;13.20;71.43
49515;BME280;35415;47.870;16.058;2022-08-11T03:20:24;97934.84;;;13.19;70.95
49515;BME280;35415;47.870;16.058;2022-08-11T03:22:59;97937.78;;;13.13;71.40
49515;BME280;35415;47.870;16.058;2022-08-11T03:25:36;97922.63;;;12.97;71.80
49515;BME280;35415;47.870;16.058;2022-08-11T03:28:19;97938.31;;;13.05;71.70
49515;BME280;35415;47.870;16.058;2022-08-11T03:30:55;97949.91;;;13.05;72.05
49515;BME280;35415;47.870;16.058;2022-08-11T03:33:28;97938.28;;;12.94;72.49
49515;BME280;35415;47.870;16.058;2022-08-11T03:36:27;97945.31;;;13.01;72.41
49515;BME280;35415;47.870;16.058;2022-08-11T03:39:11;97931.50;;;12.87;72.20
49515;BME280;35415;47.870;16.058;2022-08-11T03:41:48;97941.81;;;12.95;72.99
49515;BME280;35415;47.870;16.058;2022-08-11T03:44:42;97939.59;;;12.87;71.97
49515;BME280;35415;47.870;16.058;2022-08-11T03:47:24;97913.91;;;12.74;72.47
49515;BME280;35415;47.870;16.058;2022-08-11T03:50:15;97929.59;;;12.77;71.86
49515;BME280;35415;47.870;16.058;2022-08-11T03:53:04;97948.78;;;12.81;72.74
49515;BME280;35415;47.870;16.058;2022-08-11T03:55:57;97914.13;;;12.52;72.82
49515;BME280;35415;47.870;16.058;2022-08-11T04:01:49;97931.97;;;12.63;72.61
49515;BME280;35415;47.870;16.058;2022-08-11T04:04:58;97939.28;;;12.68;72.80
49515;BME280;35415;47.870;16.058;2022-08-11T04:08:03;97917.63;;;12.53;73.04
49515;BME280;35415;47.870;16.058;2022-08-11T04:14:17;97947.06;;;12.59;73.10
49515;BME280;35415;47.870;16.058;2022-08-11T04:20:27;97945.69;;;12.52;73.66
49515;BME280;35415;47.870;16.058;2022-08-11T04:23:10;97946.22;;;12.49;73.99
49515;BME280;35415;47.870;16.058;2022-08-11T04:29:03;97927.78;;;12.35;74.67
49515;BME280;35415;47.870;16.058;2022-08-11T04:31:46;97945.13;;;12.45;74.47
49515;BME280;35415;47.870;16.058;2022-08-11T04:34:41;97944.03;;;12.46;74.26
49515;BME280;35415;47.870;16.058;2022-08-11T04:40:48;97909.94;;;12.24;74.15
49515;BME280;35415;47.870;16.058;2022-08-11T04:50:22;97929.16;;;12.38;74.13
49515;BME280;35415;47.870;16.058;2022-08-11T04:53:32;97925.91;;;12.36;74.33
49515;BME280;35415;47.870;16.058;2022-08-11T04:56:20;97933.47;;;12.34;74.77
49515;BME280;35415;47.870;16.058;2022-08-11T04:59:28;97947.28;;;12.48;74.20
49515;BME280;35415;47.870;16.058;2022-08-11T05:05:48;97948.09;;;12.48;74.53
49515;BME280;35415;47.870;16.058;2022-08-11T05:08:53;97945.94;;;12.50;74.39
49515;BME280;35415;47.870;16.058;2022-08-11T05:11:55;97951.06;;;12.52;74.34
49515;BME280;35415;47.870;16.058;2022-08-11T05:14:33;97944.88;;;12.51;74.91
49515;BME280;35415;47.870;16.058;2022-08-11T05:17:28;97947.03;;;12.49;74.89
49515;BME280;35415;47.870;16.058;2022-08-11T05:20:14;97937.31;;;12.48;75.65
49515;BME280;35415;47.870;16.058;2022-08-11T05:23:04;97928.66;;;12.46;75.28
49515;BME280;35415;47.870;16.058;2022-08-11T05:25:54;97928.94;;;12.50;75.65
49515;BME280;35415;47.870;16.058;2022-08-11T05:28:45;97939.53;;;12.61;75.63
49515;BME280;35415;47.870;16.058;2022-08-11T05:31:37;97942.25;;;12.67;75.58
49515;BME280;35415;47.870;16.058;2022-08-11T05:34:25;97926.56;;;12.63;75.64
49515;BME280;35415;47.870;16.058;2022-08-11T05:37:13;97936.88;;;12.77;75.66
49515;BME280;35415;47.870;16.058;2022-08-11T05:39:50;97928.78;;;12.77;75.67
49515;BME280;35415;47.870;16.058;2022-08-11T05:42:42;97943.66;;;12.89;75.32
49515;BME280;35415;47.870;16.058;2022-08-11T05:45:26;97935.28;;;12.91;75.24
49515;BME280;35415;47.870;16.058;2022-08-11T05:48:12;97946.13;;;13.01;75.28
49515;BME280;35415;47.870;16.058;2022-08-11T05:50:59;97912.91;;;12.95;75.07
49515;BME280;35415;47.870;16.058;2022-08-11T05:53:50;97926.69;;;13.09;75.02
49515;BME280;35415;47.870;16.058;2022-08-11T05:56:42;97935.94;;;13.23;74.69
49515;BME280;35415;47.870;16.058;2022-08-11T05:59:17;97933.78;;;13.31;74.35
49515;BME280;35415;47.870;16.058;2022-08-11T06:01:46;97929.19;;;13.36;74.50
49515;BME280;35415;47.870;16.058;2022-08-11T06:04:20;97927.59;;;13.45;74.33
49515;BME280;35415;47.870;16.058;2022-08-11T06:06:54;97928.13;;;13.52;74.04
49515;BME280;35415;47.870;16.058;2022-08-11T06:09:30;97923.00;;;13.56;73.84
49515;BME280;35415;47.870;16.058;2022-08-11T06:12:02;97880.28;;;13.43;73.76
49515;BME280;35415;47.870;16.058;2022-08-11T06:14:32;97916.22;;;13.74;73.81
49515;BME280;35415;47.870;16.058;2022-08-11T06:17:02;97907.84;;;13.75;73.60
49515;BME280;35415;47.870;16.058;2022-08-11T06:19:35;97923.25;;;13.95;73.23
49515;BME280;35415;47.870;16.058;2022-08-11T06:22:05;97923.22;;;14.05;72.90
49515;BME280;35415;47.870;16.058;2022-08-11T06:24:35;97927.53;;;14.17;72.74
49515;BME280;35415;47.870;16.058;2022-08-11T06:27:04;97908.88;;;14.15;72.79
49515;BME280;35415;47.870;16.058;2022-08-11T06:29:35;97919.13;;;14.28;72.55
49515;BME280;35415;47.870;16.058;2022-08-11T06:32:05;97921.25;;;14.47;71.86
49515;BME280;35415;47.870;16.058;2022-08-11T06:34:53;97920.91;;;14.58;71.56
49515;BME280;35415;47.870;16.058;2022-08-11T06:37:26;97922.50;;;14.69;70.62
49515;BME280;35415;47.870;16.058;2022-08-11T06:40:06;97928.41;;;14.82;70.42
49515;BME280;35415;47.870;16.058;2022-08-11T06:42:45;97917.00;;;14.85;70.76
49515;BME280;35415;47.870;16.058;2022-08-11T06:45:26;97908.00;;;14.94;70.47
49515;BME280;35415;47.870;16.058;2022-08-11T06:47:55;97889.03;;;14.94;70.19
49515;BME280;35415;47.870;16.058;2022-08-11T06:50:26;97914.34;;;15.24;69.78
49515;BME280;35415;47.870;16.058;2022-08-11T06:53:14;97897.50;;;15.27;68.97
49515;BME280;35415;47.870;16.058;2022-08-11T06:55:45;97900.66;;;15.39;68.71
49515;BME280;35415;47.870;16.058;2022-08-11T06:58:33;97917.88;;;15.63;68.34
49515;BME280;35415;47.870;16.058;2022-08-11T07:01:28;97917.19;;;15.77;67.62
49515;BME280;35415;47.870;16.058;2022-08-11T07:04:04;97911.69;;;15.87;67.23
49515;BME280;35415;47.870;16.058;2022-08-11T07:06:38;97911.03;;;16.00;66.57
49515;BME280;35415;47.870;16.058;2022-08-11T07:09:32;97903.63;;;16.06;66.48
49515;BME280;35415;47.870;16.058;2022-08-11T07:12:38;97890.56;;;16.13;66.32
49515;BME280;35415;47.870;16.058;2022-08-11T07:15:29;97902.22;;;16.37;64.75
49515;BME280;35415;47.870;16.058;2022-08-11T07:18:24;97908.56;;;16.51;65.10
49515;BME280;35415;47.870;16.058;2022-08-11T07:21:18;97900.53;;;16.65;64.49
49515;BME280;35415;47.870;16.058;2022-08-11T07:24:10;97892.25;;;16.75;64.94
49515;BME280;35415;47.870;16.058;2022-08-11T07:26:57;97890.72;;;16.88;64.29
49515;BME280;35415;47.870;16.058;2022-08-11T07:29:45;97886.41;;;17.06;63.10
49515;BME280;35415;47.870;16.058;2022-08-11T07:32:19;97872.72;;;17.11;63.73
49515;BME280;35415;47.870;16.058;2022-08-11T07:34:56;97887.06;;;17.35;62.54
49515;BME280;35415;47.870;16.058;2022-08-11T07:37:30;97886.31;;;17.49;62.64
49515;BME280;35415;47.870;16.058;2022-08-11T07:39:59;97848.88;;;17.40;61.71
49515;BME280;35415;47.870;16.058;2022-08-11T07:42:30;97874.41;;;17.77;61.29
49515;BME280;35415;47.870;16.058;2022-08-11T07:45:03;97844.28;;;17.73;60.71
49515;BME280;35415;47.870;16.058;2022-08-11T07:47:49;97869.53;;;18.07;59.72
49515;BME280;35415;47.870;16.058;2022-08-11T07:50:39;97846.13;;;18.06;60.30
49515;BME280;35415;47.870;16.058;2022-08-11T07:53:25;97872.97;;;18.40;59.50
49515;BME280;35415;47.870;16.058;2022-08-11T07:55:55;97848.56;;;18.34;58.77
49515;BME280;35415;47.870;16.058;2022-08-11T07:58:23;97861.94;;;18.58;57.37
49515;BME280;35415;47.870;16.058;2022-08-11T08:01:10;97875.16;;;18.79;57.33
49515;BME280;35415;47.870;16.058;2022-08-11T08:03:55;97864.72;;;18.94;56.57
49515;BME280;35415;47.870;16.058;2022-08-11T08:06:44;97865.63;;;19.04;56.43
49515;BME280;35415;47.870;16.058;2022-08-11T08:09:32;97869.63;;;19.20;56.73
49515;BME280;35415;47.870;16.058;2022-08-11T08:12:19;97861.38;;;19.34;55.78
49515;BME280;35415;47.870;16.058;2022-08-11T08:15:06;97863.53;;;19.45;54.81
49515;BME280;35415;47.870;16.058;2022-08-11T08:17:51;97848.47;;;19.48;53.19
49515;BME280;35415;47.870;16.058;2022-08-11T08:20:25;97858.28;;;19.71;54.11
49515;BME280;35415;47.870;16.058;2022-08-11T08:22:57;97852.75;;;19.85;54.48
49515;BME280;35415;47.870;16.058;2022-08-11T08:25:30;97845.06;;;19.87;50.64
49515;BME280;35415;47.870;16.058;2022-08-11T08:27:58;97850.91;;;20.03;50.31
49515;BME280;35415;47.870;16.058;2022-08-11T08:30:27;97850.81;;;20.17;52.70
49515;BME280;35415;47.870;16.058;2022-08-11T08:33:13;97851.47;;;20.31;51.17
49515;BME280;35415;47.870;16.058;2022-08-11T08:35:43;97842.03;;;20.37;51.72
49515;BME280;35415;47.870;16.058;2022-08-11T08:38:14;97827.25;;;20.38;52.29
49515;BME280;35415;47.870;16.058;2022-08-11T08:40:44;97837.28;;;20.60;51.35
49515;BME280;35415;47.870;16.058;2022-08-11T08:43:15;97827.31;;;20.64;51.49
49515;BME280;35415;47.870;16.058;2022-08-11T08:45:44;97815.94;;;20.70;50.40
49515;BME280;35415;47.870;16.058;2022-08-11T08:48:14;97842.50;;;20.96;50.63
49515;BME280;35415;47.870;16.058;2022-08-11T08:50:46;97844.44;;;21.13;50.21
49515;BME280;35415;47.870;16.058;2022-08-11T08:53:38;97784.28;;;20.87;48.64
49515;BME280;35415;47.870;16.058;2022-08-11T08:56:06;97788.75;;;21.09;47.18
49515;BME280;35415;47.870;16.058;2022-08-11T08:58:37;97840.41;;;21.53;48.21
49515;BME280;35415;47.870;16.058;2022-08-11T09:01:05;97813.19;;;21.57;48.40
49515;BME280;35415;47.870;16.058;2022-08-11T09:03:35;97754.97;;;21.30;48.69
49515;BME280;35415;47.870;16.058;2022-08-11T09:06:04;97820.97;;;21.93;46.90
49515;BME280;35415;47.870;16.058;2022-08-11T09:08:32;97765.78;;;21.74;47.41
49515;BME280;35415;47.870;16.058;2022-08-11T09:11:02;97755.78;;;21.78;46.34
49515;BME280;35415;47.870;16.058;2022-08-11T09:13:48;97822.91;;;22.39;46.38
49515;BME280;35415;47.870;16.058;2022-08-11T09:16:16;97795.84;;;22.29;45.40
49515;BME280;35415;47.870;16.058;2022-08-11T09:18:47;97818.72;;;22.63;42.38
49515;BME280;35415;47.870;16.058;2022-08-11T09:21:18;97812.66;;;22.78;44.46
49515;BME280;35415;47.870;16.058;2022-08-11T09:23:48;97783.97;;;22.75;44.64
49515;BME280;35415;47.870;16.058;2022-08-11T09:26:37;97758.94;;;22.77;44.60
49515;BME280;35415;47.870;16.058;2022-08-11T09:29:26;97778.91;;;23.07;43.58
49515;BME280;35415;47.870;16.058;2022-08-11T09:31:54;97813.13;;;23.42;42.50
49515;BME280;35415;47.870;16.058;2022-08-11T09:34:23;97798.78;;;23.58;42.48
49515;BME280;35415;47.870;16.058;2022-08-11T09:36:51;97815.44;;;23.86;42.31
49515;BME280;35415;47.870;16.058;2022-08-11T09:39:37;97781.69;;;23.85;41.13
49515;BME280;35415;47.870;16.058;2022-08-11T09:42:25;97806.78;;;24.20;41.14
49515;BME280;35415;47.870;16.058;2022-08-11T09:45:13;97790.44;;;24.36;40.35
49515;BME280;35415;47.870;16.058;2022-08-11T09:47:42;97798.75;;;24.52;39.00
49515;BME280;35415;47.870;16.058;2022-08-11T09:50:11;97765.34;;;24.38;39.10
49515;BME280;35415;47.870;16.058;2022-08-11T09:52:41;97792.78;;;24.74;42.58
49515;BME280;35415;47.870;16.058;2022-08-11T09:55:13;97732.75;;;24.52;39.37
49515;BME280;35415;47.870;16.058;2022-08-11T09:57:46;97777.94;;;24.91;38.59
49515;BME280;35415;47.870;16.058;2022-08-11T10:00:34;97788.34;;;25.10;37.35
49515;BME280;35415;47.870;16.058;2022-08-11T10:03:08;97745.00;;;24.95;37.11
49515;BME280;35415;47.870;16.058;2022-08-11T10:05:37;97745.13;;;24.98;36.85
49515;BME280;35415;47.870;16.058;2022-08-11T10:08:38;97770.53;;;25.19;37.17
49515;BME280;35415;47.870;16.058;2022-08-11T10:11:10;97740.41;;;25.11;36.19
49515;BME280;35415;47.870;16.058;2022-08-11T10:13:42;97776.59;;;25.25;37.14
49515;BME280;35415;47.870;16.058;2022-08-11T10:16:26;97775.16;;;25.31;37.71
49515;BME280;35415;47.870;16.058;2022-08-11T10:18:55;97775.63;;;25.33;37.02
49515;BME280;35415;47.870;16.058;2022-08-11T10:21:28;97782.28;;;25.32;38.07
49515;BME280;35415;47.870;16.058;2022-08-11T10:23:58;97780.75;;;25.35;35.85
49515;BME280;35415;47.870;16.058;2022-08-11T10:26:44;97768.09;;;25.46;36.76
49515;BME280;35415;47.870;16.058;2022-08-11T10:29:30;97748.66;;;25.39;37.19
49515;BME280;35415;47.870;16.058;2022-08-11T10:32:18;97757.56;;;25.64;36.85
49515;BME280;35415;47.870;16.058;2022-08-11T10:35:04;97761.69;;;25.70;36.71
49515;BME280;35415;47.870;16.058;2022-08-11T10:37:35;97730.53;;;25.54;36.32
49515;BME280;35415;47.870;16.058;2022-08-11T10:40:05;97751.63;;;25.77;37.11
49515;BME280;35415;47.870;16.058;2022-08-11T10:42:33;97756.63;;;25.72;35.38
49515;BME280;35415;47.870;16.058;2022-08-11T10:45:20;97746.22;;;25.81;35.03
49515;BME280;35415;47.870;16.058;2022-08-11T10:48:06;97739.97;;;25.84;35.38
49515;BME280;35415;47.870;16.058;2022-08-11T10:50:35;97758.03;;;25.97;34.52
49515;BME280;35415;47.870;16.058;2022-08-11T10:53:20;97738.31;;;25.95;34.29
49515;BME280;35415;47.870;16.058;2022-08-11T10:56:05;97747.78;;;26.14;35.31
49515;BME280;35415;47.870;16.058;2022-08-11T10:58:51;97750.91;;;26.12;35.38
49515;BME280;35415;47.870;16.058;2022-08-11T11:01:24;97757.75;;;26.18;35.35
49515;BME280;35415;47.870;16.058;2022-08-11T11:03:54;97765.13;;;26.14;33.87
49515;BME280;35415;47.870;16.058;2022-08-11T11:06:26;97758.09;;;26.17;34.76
49515;BME280;35415;47.870;16.058;2022-08-11T11:08:58;97746.53;;;26.27;36.26
49515;BME280;35415;47.870;16.058;2022-08-11T11:11:30;97746.19;;;26.13;34.67
49515;BME280;35415;47.870;16.058;2022-08-11T11:14:18;97737.06;;;26.08;34.78
49515;BME280;35415;47.870;16.058;2022-08-11T11:17:05;97739.09;;;26.12;35.13
49515;BME280;35415;47.870;16.058;2022-08-11T11:19:54;97707.97;;;26.11;34.96
49515;BME280;35415;47.870;16.058;2022-08-11T11:22:24;97725.34;;;26.31;33.57
49515;BME280;35415;47.870;16.058;2022-08-11T11:25:19;97727.75;;;26.48;35.65
49515;BME280;35415;47.870;16.058;2022-08-11T11:28:18;97718.47;;;26.56;35.61
49515;BME280;35415;47.870;16.058;2022-08-11T11:31:04;97724.06;;;26.60;35.07
49515;BME280;35415;47.870;16.058;2022-08-11T11:33:53;97721.00;;;26.65;34.49
49515;BME280;35415;47.870;16.058;2022-08-11T11:36:29;97727.31;;;26.65;34.35
49515;BME280;35415;47.870;16.058;2022-08-11T11:38:59;97721.81;;;26.65;33.51
49515;BME280;35415;47.870;16.058;2022-08-11T11:41:28;97715.94;;;26.67;33.75
49515;BME280;35415;47.870;16.058;2022-08-11T11:43:56;97709.41;;;26.75;33.98
49515;BME280;35415;47.870;16.058;2022-08-11T11:46:26;97692.50;;;26.77;34.03
49515;BME280;35415;47.870;16.058;2022-08-11T11:48:56;97705.53;;;26.99;34.04
49515;BME280;35415;47.870;16.058;2022-08-11T11:51:25;97703.69;;;27.03;33.65
49515;BME280;35415;47.870;16.058;2022-08-11T11:53:54;97707.31;;;27.07;33.82
49515;BME280;35415;47.870;16.058;2022-08-11T11:56:23;97707.75;;;27.09;32.82
49515;BME280;35415;47.870;16.058;2022-08-11T12:42:13;97598.84;;;27.30;29.44
49515;BME280;35415;47.870;16.058;2022-08-11T12:45:01;97614.84;;;27.66;29.88
49515;BME280;35415;47.870;16.058;2022-08-11T12:47:48;97532.50;;;27.26;29.33
49515;BME280;35415;47.870;16.058;2022-08-11T12:50:33;97595.56;;;27.70;28.35
49515;BME280;35415;47.870;16.058;2022-08-11T12:53:22;97516.31;;;27.24;29.02
49515;BME280;35415;47.870;16.058;2022-08-11T12:55:50;97636.88;;;28.12;30.32
49515;BME280;35415;47.870;16.058;2022-08-11T12:58:40;97536.00;;;27.49;29.02
49515;BME280;35415;47.870;16.058;2022-08-11T13:01:09;97627.66;;;28.04;29.57
49515;BME280;35415;47.870;16.058;2022-08-11T13:03:54;97553.88;;;27.55;28.92
49515;BME280;35415;47.870;16.058;2022-08-11T13:06:40;97527.91;;;27.37;29.56
49515;BME280;35415;47.870;16.058;2022-08-11T13:09:11;97636.41;;;28.06;27.43
49515;BME280;35415;47.870;16.058;2022-08-11T13:11:41;97510.47;;;27.30;28.91
49515;BME280;35415;47.870;16.058;2022-08-11T13:14:30;97510.78;;;27.24;28.34
49515;BME280;35415;47.870;16.058;2022-08-11T13:16:59;97501.75;;;27.27;27.66
49515;BME280;35415;47.870;16.058;2022-08-11T13:19:44;97623.69;;;28.02;27.74
49515;BME280;35415;47.870;16.058;2022-08-11T13:22:16;97629.53;;;27.97;28.05
49515;BME280;35415;47.870;16.058;2022-08-11T13:24:45;97606.03;;;27.83;28.53
49515;BME280;35415;47.870;16.058;2022-08-11T13:27:15;97523.09;;;27.31;28.64
49515;BME280;35415;47.870;16.058;2022-08-11T13:29:48;97608.41;;;27.85;29.13
49515;BME280;35415;47.870;16.058;2022-08-11T13:32:19;97614.19;;;27.73;28.52
49515;BME280;35415;47.870;16.058;2022-08-11T13:34:47;97537.59;;;27.24;28.27
49515;BME280;35415;47.870;16.058;2022-08-11T13:37:15;97600.41;;;27.76;28.17
49515;BME280;35415;47.870;16.058;2022-08-11T13:39:46;97606.78;;;27.80;28.37
49515;BME280;35415;47.870;16.058;2022-08-11T13:42:15;97473.97;;;26.94;28.38
49515;BME280;35415;47.870;16.058;2022-08-11T13:44:49;97577.97;;;27.55;28.76
49515;BME280;35415;47.870;16.058;2022-08-11T13:47:16;97617.63;;;27.66;27.27
49515;BME280;35415;47.870;16.058;2022-08-11T13:49:48;97502.75;;;26.93;28.28
49515;BME280;35415;47.870;16.058;2022-08-11T13:52:16;97575.19;;;27.32;27.53
49515;BME280;35415;47.870;16.058;2022-08-11T13:54:48;97502.88;;;26.77;27.58
49515;BME280;35415;47.870;16.058;2022-08-11T13:57:18;97560.34;;;27.17;28.64
49515;BME280;35415;47.870;16.058;2022-08-11T13:59:52;97565.94;;;27.21;28.41
49515;BME280;35415;47.870;16.058;2022-08-11T14:02:25;97596.38;;;27.47;29.35
49515;BME280;35415;47.870;16.058;2022-08-11T14:04:56;97518.13;;;26.94;28.36
49515;BME280;35415;47.870;16.058;2022-08-11T14:07:37;97558.25;;;27.34;29.16
49515;BME280;35415;47.870;16.058;2022-08-11T14:10:11;97538.69;;;27.19;27.86
49515;BME280;35415;47.870;16.058;2022-08-11T14:12:50;97537.03;;;27.15;27.07
49515;BME280;35415;47.870;16.058;2022-08-11T14:15:41;97551.31;;;27.43;28.33
49515;BME280;35415;47.870;16.058;2022-08-11T14:18:17;97477.16;;;26.96;27.48
49515;BME280;35415;47.870;16.058;2022-08-11T14:20:48;97550.16;;;27.44;28.72
49515;BME280;35415;47.870;16.058;2022-08-11T14:23:37;97550.94;;;27.45;28.45
49515;BME280;35415;47.870;16.058;2022-08-11T14:26:06;97537.38;;;27.36;28.76
49515;BME280;35415;47.870;16.058;2022-08-11T14:28:51;97589.66;;;27.71;28.35
49515;BME280;35415;47.870;16.058;2022-08-11T14:31:23;97584.44;;;27.66;28.13
49515;BME280;35415;47.870;16.058;2022-08-11T14:33:53;97594.38;;;27.71;28.41
49515;BME280;35415;47.870;16.058;2022-08-11T14:36:23;97586.84;;;27.68;27.83
49515;BME280;35415;47.870;16.058;2022-08-11T14:38:53;97584.03;;;27.64;26.28
49515;BME280;35415;47.870;16.058;2022-08-11T14:41:22;97573.09;;;27.48;27.15
49515;BME280;35415;47.870;16.058;2022-08-11T14:44:08;97587.50;;;27.61;26.66
49515;BME280;35415;47.870;16.058;2022-08-11T14:46:55;97578.50;;;27.64;28.33
49515;BME280;35415;47.870;16.058;2022-08-11T14:49:33;97559.47;;;27.59;27.65
49515;BME280;35415;47.870;16.058;2022-08-11T14:52:02;97559.16;;;27.64;27.50
49515;BME280;35415;47.870;16.058;2022-08-11T14:54:30;97578.38;;;27.83;26.99
49515;BME280;35415;47.870;16.058;2022-08-11T14:57:16;97601.34;;;27.87;28.10
49515;BME280;35415;47.870;16.058;2022-08-11T14:59:46;97584.88;;;27.95;26.96
49515;BME280;35415;47.870;16.058;2022-08-11T15:02:22;97578.63;;;28.01;27.94
49515;BME280;35415;47.870;16.058;2022-08-11T15:05:08;97560.44;;;28.00;27.31
49515;BME280;35415;47.870;16.058;2022-08-11T15:07:35;97568.44;;;28.05;26.58
49515;BME280;35415;47.870;16.058;2022-08-11T15:10:07;97575.19;;;28.08;28.18
49515;BME280;35415;47.870;16.058;2022-08-11T15:12:36;97571.22;;;28.05;26.43
49515;BME280;35415;47.870;16.058;2022-08-11T15:15:08;97556.47;;;27.98;26.42
49515;BME280;35415;47.870;16.058;2022-08-11T15:18:01;97563.22;;;28.00;26.23
49515;BME280;35415;47.870;16.058;2022-08-11T15:20:29;97542.66;;;27.71;25.60
49515;BME280;35415;47.870;16.058;2022-08-11T15:23:14;97559.16;;;27.64;26.46